createdAt,value
2022-08-27T16:28:59.972Z,25.92
2022-08-27T16:31:30.288Z,25.87
2022-08-27T16:34:02.170Z,26.10
2022-08-27T16:36:32.214Z,26.06
2022-08-27T16:39:00.782Z,26.06
2022-08-27T16:41:29.483Z,26.22
2022-08-27T16:43:59.492Z,26.10
2022-08-27T16:46:28.395Z,25.99
2022-08-27T16:49:20.091Z,25.92
2022-08-27T16:51:53.767Z,26.05
2022-08-27T16:54:27.707Z,26.11
2022-08-27T16:56:58.101Z,26.19
2022-08-27T16:59:28.021Z,26.20
2022-08-27T17:02:00.945Z,26.31
2022-08-27T17:04:38.058Z,26.18
2022-08-27T17:07:14.230Z,26.17
2022-08-27T17:09:44.199Z,26.15
2022-08-27T17:12:14.937Z,26.08
2022-08-27T17:14:43.517Z,26.12
2022-08-27T17:17:13.338Z,26.08
2022-08-27T17:19:43.311Z,26.14
2022-08-27T17:22:12.434Z,26.12
2022-08-27T17:24:48.263Z,25.97
2022-08-27T17:27:31.874Z,26.06
2022-08-27T17:30:13.153Z,25.84
2022-08-27T17:32:44.273Z,25.95
2022-08-27T17:35:14.471Z,25.88
2022-08-27T17:37:45.743Z,25.80
2022-08-27T17:40:16.208Z,25.74
2022-08-27T17:42:46.992Z,25.69
2022-08-27T17:45:17.819Z,25.90
2022-08-27T17:47:47.091Z,25.92
2022-08-27T17:50:16.559Z,25.67
2022-08-27T17:52:46.250Z,25.63
2022-08-27T17:55:15.355Z,25.73
2022-08-27T17:57:44.081Z,25.69
2022-08-27T18:00:16.375Z,25.92
2022-08-27T18:02:48.661Z,25.69
2022-08-27T18:05:19.927Z,25.44
2022-08-27T18:07:49.311Z,25.63
2022-08-27T18:10:23.493Z,25.32
2022-08-27T18:12:55.956Z,25.42
2022-08-27T18:15:30.770Z,25.53
2022-08-27T18:18:00.327Z,25.49
2022-08-27T18:20:30.619Z,25.30
2022-08-27T18:23:00.341Z,25.16
2022-08-27T18:25:35.805Z,25.07
2022-08-27T18:28:08.704Z,25.24
2022-08-27T18:30:39.931Z,25.20
2022-08-27T18:33:08.926Z,25.25
2022-08-27T18:35:38.100Z,25.15
2022-08-27T18:38:07.439Z,25.28
2022-08-27T18:40:41.800Z,25.44
2022-08-27T18:43:11.030Z,25.39
2022-08-27T18:45:39.960Z,25.30
2022-08-27T18:48:26.474Z,25.46
2022-08-27T18:50:58.894Z,25.31
2022-08-27T18:53:30.639Z,25.23
2022-08-27T18:55:59.920Z,25.29
2022-08-27T18:58:28.940Z,25.70
2022-08-27T19:01:01.018Z,25.71
2022-08-27T19:03:36.970Z,25.51
2022-08-27T19:06:08.841Z,25.66
2022-08-27T19:08:38.480Z,25.57
2022-08-27T19:11:06.744Z,25.40
2022-08-27T19:28:47.414Z,25.01
2022-08-27T19:31:16.437Z,25.11
2022-08-27T19:33:45.680Z,25.07
2022-08-27T19:36:16.572Z,25.18
2022-08-27T19:38:46.312Z,25.06
2022-08-27T19:41:14.681Z,25.09
2022-08-27T19:43:44.668Z,25.07
2022-08-27T19:46:18.348Z,25.03
2022-08-27T19:48:47.407Z,25.02
2022-08-27T19:51:16.201Z,25.06
2022-08-27T19:53:44.830Z,25.24
2022-08-27T19:56:14.010Z,25.30
2022-08-27T19:58:43.862Z,25.30
2022-08-27T20:01:12.755Z,25.21
2022-08-27T20:03:41.345Z,25.04
2022-08-27T20:06:09.968Z,25.04
2022-08-27T20:08:39.090Z,25.04
2022-08-27T20:11:07.392Z,25.02
2022-08-27T20:13:36.100Z,25.01
2022-08-27T20:16:06.891Z,24.96
2022-08-27T20:18:42.212Z,24.92
2022-08-27T20:21:10.650Z,24.99
2022-08-27T20:23:39.152Z,25.06
2022-08-27T20:26:07.757Z,25.03
2022-08-27T20:28:40.274Z,24.81
2022-08-27T20:31:09.289Z,24.84
2022-08-27T20:33:37.771Z,24.78
2022-08-27T20:36:08.892Z,24.77
2022-08-27T20:38:37.731Z,24.61
2022-08-27T20:41:07.128Z,24.71
2022-08-27T20:43:36.155Z,24.68
2022-08-27T20:46:05.496Z,24.74
2022-08-27T20:48:33.938Z,24.70
2022-08-27T20:51:02.368Z,24.65
2022-08-27T20:53:31.509Z,24.63
2022-08-27T20:55:59.838Z,24.62
2022-08-27T20:59:06.780Z,24.63
2022-08-27T21:01:36.259Z,24.57
2022-08-27T21:04:04.979Z,24.54
2022-08-27T21:06:33.652Z,24.62
2022-08-27T21:09:02.501Z,24.80
2022-08-27T21:11:31.040Z,24.91
2022-08-27T21:13:59.479Z,24.89
2022-08-27T21:16:28.209Z,24.79
2022-08-27T21:18:56.819Z,24.35
2022-08-27T21:21:25.239Z,24.20
2022-08-27T21:23:53.848Z,24.24
2022-08-27T21:26:23.462Z,24.02
2022-08-27T21:28:55.902Z,24.31
2022-08-27T21:31:25.631Z,24.17
2022-08-27T21:33:54.179Z,24.00
2022-08-27T21:36:23.299Z,23.82
2022-08-27T21:38:52.089Z,24.05
2022-08-27T21:41:21.289Z,24.16
2022-08-27T21:43:50.359Z,24.28
2022-08-27T21:46:20.187Z,24.32
2022-08-27T21:48:58.504Z,23.77
2022-08-27T21:51:28.509Z,23.56
2022-08-27T21:53:59.152Z,23.44
2022-08-27T21:56:28.722Z,23.45
2022-08-27T21:58:57.438Z,23.48
2022-08-27T22:01:25.819Z,23.48
2022-08-27T22:03:55.613Z,23.44
2022-08-27T22:06:24.170Z,23.45
2022-08-27T22:08:52.599Z,23.39
2022-08-27T22:11:24.138Z,23.49
2022-08-27T22:13:54.170Z,23.48
2022-08-27T22:16:22.570Z,23.53
2022-08-27T22:18:54.601Z,23.68
2022-08-27T22:21:25.168Z,23.53
2022-08-27T22:23:53.688Z,23.50
2022-08-27T22:26:22.798Z,23.31
2022-08-27T22:28:51.659Z,23.25
2022-08-27T22:31:20.220Z,23.48
2022-08-27T22:33:48.890Z,23.23
2022-08-27T22:36:17.587Z,23.20
2022-08-27T22:38:46.417Z,23.08
2022-08-27T22:41:16.995Z,23.20
2022-08-27T22:43:47.679Z,23.25
2022-08-27T22:46:16.200Z,23.32
2022-08-27T22:48:44.709Z,23.18
2022-08-27T22:51:13.402Z,23.15
2022-08-27T22:53:41.919Z,23.23
2022-08-27T22:56:10.434Z,23.08
2022-08-27T22:58:39.038Z,23.13
2022-08-27T23:01:08.178Z,23.07
2022-08-27T23:03:36.675Z,23.06
2022-08-27T23:06:05.516Z,23.03
2022-08-27T23:08:33.869Z,23.11
2022-08-27T23:11:03.911Z,23.12
2022-08-27T23:13:33.281Z,23.01
2022-08-27T23:16:03.471Z,22.96
2022-08-27T23:18:32.728Z,22.89
2022-08-27T23:21:02.150Z,22.90
2022-08-27T23:23:30.973Z,22.97
2022-08-27T23:26:18.518Z,23.02
2022-08-27T23:28:47.427Z,22.90
2022-08-27T23:31:16.307Z,22.93
2022-08-27T23:33:45.237Z,22.95
2022-08-27T23:36:13.870Z,22.97
2022-08-27T23:38:42.234Z,23.02
2022-08-27T23:41:11.357Z,22.93
2022-08-27T23:43:40.131Z,22.88
2022-08-27T23:46:08.803Z,22.85
2022-08-27T23:48:39.715Z,23.11
2022-08-27T23:51:09.742Z,23.46
2022-08-27T23:53:38.262Z,23.57
2022-08-27T23:56:06.795Z,23.26
2022-08-27T23:58:35.334Z,23.01
